Terminal Aerodrome Forecast
Issued by NWS Lake Charles, LA

Home | Current Version | Previous Version | Text Only | Print | Product List | Glossary On
Versions: 1 2 3 4 5 6 7 8 9 10 11 12 13 14 15 16 17
709
FTUS44 KLCH 270520
TAFLFT
TAF
KLFT 270520Z 2706/2806 08003KT P6SM VCSH SCT035 BKN150
     FM271400 05007KT 4SM BR SCT030 BKN050 PROB30 2716/2722 2SM TSRA
      BKN030CB OVC050=

USA.gov is the U.S. government's official web portal to all federal, state and local government web resources and services.